sensor_id;sensor_type;location;lat;lon;timestamp;P1;durP1;ratioP1;P2;durP2;ratioP2
30888;SDS011;51092;50.874;7.024;2023-03-20T00:00:26;35.42;;;27.15;;
30888;SDS011;51092;50.874;7.024;2023-03-20T00:01:31;36.42;;;28.67;;
30888;SDS011;51092;50.874;7.024;2023-03-20T00:02:33;39.53;;;29.40;;
30888;SDS011;51092;50.874;7.024;2023-03-20T00:03:35;37.78;;;28.08;;
30888;SDS011;51092;50.874;7.024;2023-03-20T00:04:37;36.05;;;28.73;;
30888;SDS011;51092;50.874;7.024;2023-03-20T00:05:39;41.35;;;29.77;;
30888;SDS011;51092;50.874;7.024;2023-03-20T00:06:40;36.92;;;27.92;;
30888;SDS011;51092;50.874;7.024;2023-03-20T00:07:42;37.88;;;29.30;;
30888;SDS011;51092;50.874;7.024;2023-03-20T00:08:43;35.75;;;29.17;;
30888;SDS011;51092;50.874;7.024;2023-03-20T00:09:46;39.05;;;30.17;;
30888;SDS011;51092;50.874;7.024;2023-03-20T00:10:49;35.25;;;27.52;;
30888;SDS011;51092;50.874;7.024;2023-03-20T00:11:52;43.00;;;30.10;;
30888;SDS011;51092;50.874;7.024;2023-03-20T00:12:55;43.67;;;28.52;;
30888;SDS011;51092;50.874;7.024;2023-03-20T00:13:58;36.45;;;29.48;;
30888;SDS011;51092;50.874;7.024;2023-03-20T00:15:04;37.58;;;27.58;;
30888;SDS011;51092;50.874;7.024;2023-03-20T00:16:17;41.38;;;33.75;;
30888;SDS011;51092;50.874;7.024;2023-03-20T00:17:19;39.97;;;29.80;;
30888;SDS011;51092;50.874;7.024;2023-03-20T00:18:21;38.67;;;28.58;;
30888;SDS011;51092;50.874;7.024;2023-03-20T00:19:26;37.58;;;29.67;;
30888;SDS011;51092;50.874;7.024;2023-03-20T00:20:29;43.08;;;31.60;;
30888;SDS011;51092;50.874;7.024;2023-03-20T00:21:31;40.28;;;30.38;;
30888;SDS011;51092;50.874;7.024;2023-03-20T00:22:34;38.50;;;29.73;;
30888;SDS011;51092;50.874;7.024;2023-03-20T00:23:36;39.83;;;29.98;;
30888;SDS011;51092;50.874;7.024;2023-03-20T00:24:38;39.05;;;31.13;;
30888;SDS011;51092;50.874;7.024;2023-03-20T00:25:42;40.75;;;29.90;;
30888;SDS011;51092;50.874;7.024;2023-03-20T00:26:47;39.92;;;29.48;;
30888;SDS011;51092;50.874;7.024;2023-03-20T00:27:50;35.72;;;28.17;;
30888;SDS011;51092;50.874;7.024;2023-03-20T00:28:53;36.55;;;28.83;;
30888;SDS011;51092;50.874;7.024;2023-03-20T00:29:56;41.53;;;31.42;;
30888;SDS011;51092;50.874;7.024;2023-03-20T00:31:00;40.42;;;28.67;;
30888;SDS011;51092;50.874;7.024;2023-03-20T00:32:01;37.83;;;30.65;;
30888;SDS011;51092;50.874;7.024;2023-03-20T00:33:04;42.05;;;31.95;;
30888;SDS011;51092;50.874;7.024;2023-03-20T00:34:11;40.83;;;30.67;;
30888;SDS011;51092;50.874;7.024;2023-03-20T00:35:16;38.97;;;29.48;;
30888;SDS011;51092;50.874;7.024;2023-03-20T00:36:19;38.13;;;28.35;;
30888;SDS011;51092;50.874;7.024;2023-03-20T00:37:22;37.53;;;28.40;;
30888;SDS011;51092;50.874;7.024;2023-03-20T00:38:23;38.67;;;29.92;;
30888;SDS011;51092;50.874;7.024;2023-03-20T00:39:26;41.38;;;30.45;;
30888;SDS011;51092;50.874;7.024;2023-03-20T00:40:28;40.50;;;29.08;;
30888;SDS011;51092;50.874;7.024;2023-03-20T00:41:34;39.50;;;30.08;;
30888;SDS011;51092;50.874;7.024;2023-03-20T00:42:41;41.17;;;28.63;;
30888;SDS011;51092;50.874;7.024;2023-03-20T00:43:46;40.22;;;30.50;;
30888;SDS011;51092;50.874;7.024;2023-03-20T00:44:50;37.15;;;29.88;;
30888;SDS011;51092;50.874;7.024;2023-03-20T00:45:55;40.05;;;29.27;;
30888;SDS011;51092;50.874;7.024;2023-03-20T00:46:58;41.35;;;29.50;;
30888;SDS011;51092;50.874;7.024;2023-03-20T00:48:02;35.35;;;27.65;;
30888;SDS011;51092;50.874;7.024;2023-03-20T00:49:04;37.47;;;30.40;;
30888;SDS011;51092;50.874;7.024;2023-03-20T00:50:13;39.65;;;30.73;;
30888;SDS011;51092;50.874;7.024;2023-03-20T00:51:17;38.00;;;28.13;;
30888;SDS011;51092;50.874;7.024;2023-03-20T00:52:20;35.55;;;27.95;;
30888;SDS011;51092;50.874;7.024;2023-03-20T00:53:23;38.20;;;28.88;;
30888;SDS011;51092;50.874;7.024;2023-03-20T00:54:26;42.05;;;29.75;;
30888;SDS011;51092;50.874;7.024;2023-03-20T00:55:29;35.75;;;28.63;;
30888;SDS011;51092;50.874;7.024;2023-03-20T00:56:34;35.38;;;29.55;;
30888;SDS011;51092;50.874;7.024;2023-03-20T00:57:44;37.72;;;28.98;;
30888;SDS011;51092;50.874;7.024;2023-03-20T00:58:48;39.75;;;30.27;;
30888;SDS011;51092;50.874;7.024;2023-03-20T00:59:50;38.97;;;29.23;;
30888;SDS011;51092;50.874;7.024;2023-03-20T01:00:54;39.78;;;29.42;;
30888;SDS011;51092;50.874;7.024;2023-03-20T01:01:58;39.45;;;31.50;;
30888;SDS011;51092;50.874;7.024;2023-03-20T01:03:00;38.03;;;28.65;;
30888;SDS011;51092;50.874;7.024;2023-03-20T01:04:10;37.63;;;30.77;;
30888;SDS011;51092;50.874;7.024;2023-03-20T01:05:14;39.47;;;34.33;;
30888;SDS011;51092;50.874;7.024;2023-03-20T01:06:17;39.05;;;29.58;;
30888;SDS011;51092;50.874;7.024;2023-03-20T01:07:19;37.83;;;28.08;;
30888;SDS011;51092;50.874;7.024;2023-03-20T01:08:22;37.63;;;28.00;;
30888;SDS011;51092;50.874;7.024;2023-03-20T01:09:25;34.20;;;26.25;;
30888;SDS011;51092;50.874;7.024;2023-03-20T01:10:26;40.55;;;28.00;;
30888;SDS011;51092;50.874;7.024;2023-03-20T01:11:32;37.22;;;28.95;;
30888;SDS011;51092;50.874;7.024;2023-03-20T01:12:34;37.00;;;31.30;;
30888;SDS011;51092;50.874;7.024;2023-03-20T01:13:36;36.42;;;27.52;;
30888;SDS011;51092;50.874;7.024;2023-03-20T01:14:39;38.42;;;29.30;;
30888;SDS011;51092;50.874;7.024;2023-03-20T01:15:41;34.63;;;28.10;;
30888;SDS011;51092;50.874;7.024;2023-03-20T01:16:43;37.08;;;27.70;;
30888;SDS011;51092;50.874;7.024;2023-03-20T01:17:47;37.53;;;29.35;;
30888;SDS011;51092;50.874;7.024;2023-03-20T01:18:49;38.47;;;29.05;;
30888;SDS011;51092;50.874;7.024;2023-03-20T01:19:52;35.78;;;27.90;;
30888;SDS011;51092;50.874;7.024;2023-03-20T01:20:54;37.85;;;28.15;;
30888;SDS011;51092;50.874;7.024;2023-03-20T01:21:56;37.45;;;28.48;;
30888;SDS011;51092;50.874;7.024;2023-03-20T01:22:57;41.50;;;30.17;;
30888;SDS011;51092;50.874;7.024;2023-03-20T01:23:59;38.47;;;29.52;;
30888;SDS011;51092;50.874;7.024;2023-03-20T01:25:00;37.13;;;30.25;;
30888;SDS011;51092;50.874;7.024;2023-03-20T01:26:03;38.83;;;29.52;;
30888;SDS011;51092;50.874;7.024;2023-03-20T01:27:09;39.60;;;29.00;;
30888;SDS011;51092;50.874;7.024;2023-03-20T01:28:16;39.95;;;28.65;;
30888;SDS011;51092;50.874;7.024;2023-03-20T01:29:20;39.63;;;29.45;;
30888;SDS011;51092;50.874;7.024;2023-03-20T01:30:24;40.15;;;30.30;;
30888;SDS011;51092;50.874;7.024;2023-03-20T01:31:27;40.33;;;28.45;;
30888;SDS011;51092;50.874;7.024;2023-03-20T01:32:30;41.88;;;29.83;;
30888;SDS011;51092;50.874;7.024;2023-03-20T01:33:33;37.13;;;29.02;;
30888;SDS011;51092;50.874;7.024;2023-03-20T01:34:36;38.20;;;30.02;;
30888;SDS011;51092;50.874;7.024;2023-03-20T01:35:37;41.28;;;29.17;;
30888;SDS011;51092;50.874;7.024;2023-03-20T01:36:40;38.13;;;29.27;;
30888;SDS011;51092;50.874;7.024;2023-03-20T01:37:45;38.00;;;28.15;;
30888;SDS011;51092;50.874;7.024;2023-03-20T01:38:50;36.58;;;28.33;;
30888;SDS011;51092;50.874;7.024;2023-03-20T01:39:55;36.83;;;29.00;;
30888;SDS011;51092;50.874;7.024;2023-03-20T01:40:58;38.75;;;30.70;;
30888;SDS011;51092;50.874;7.024;2023-03-20T01:42:06;39.03;;;30.52;;
30888;SDS011;51092;50.874;7.024;2023-03-20T01:43:09;39.08;;;29.65;;
30888;SDS011;51092;50.874;7.024;2023-03-20T01:44:16;39.65;;;28.80;;
30888;SDS011;51092;50.874;7.024;2023-03-20T01:45:23;38.67;;;28.52;;
30888;SDS011;51092;50.874;7.024;2023-03-20T01:46:29;35.90;;;27.40;;
30888;SDS011;51092;50.874;7.024;2023-03-20T01:47:31;34.50;;;27.13;;
30888;SDS011;51092;50.874;7.024;2023-03-20T01:50:13;40.10;;;28.02;;
30888;SDS011;51092;50.874;7.024;2023-03-20T01:51:26;39.35;;;27.17;;
30888;SDS011;51092;50.874;7.024;2023-03-20T01:52:30;35.83;;;27.00;;
30888;SDS011;51092;50.874;7.024;2023-03-20T01:53:32;40.55;;;29.42;;
30888;SDS011;51092;50.874;7.024;2023-03-20T01:54:35;36.50;;;28.05;;
30888;SDS011;51092;50.874;7.024;2023-03-20T01:55:39;37.60;;;26.05;;
30888;SDS011;51092;50.874;7.024;2023-03-20T01:56:44;39.53;;;30.85;;
30888;SDS011;51092;50.874;7.024;2023-03-20T01:57:49;34.00;;;25.83;;
30888;SDS011;51092;50.874;7.024;2023-03-20T01:58:53;42.05;;;29.67;;
30888;SDS011;51092;50.874;7.024;2023-03-20T01:59:59;39.08;;;28.77;;
30888;SDS011;51092;50.874;7.024;2023-03-20T02:01:05;38.05;;;27.48;;
30888;SDS011;51092;50.874;7.024;2023-03-20T02:02:11;36.40;;;28.55;;
30888;SDS011;51092;50.874;7.024;2023-03-20T02:03:16;38.75;;;28.58;;
30888;SDS011;51092;50.874;7.024;2023-03-20T02:04:21;39.97;;;27.67;;
30888;SDS011;51092;50.874;7.024;2023-03-20T02:05:28;36.22;;;27.08;;
30888;SDS011;51092;50.874;7.024;2023-03-20T02:06:31;38.47;;;27.20;;
30888;SDS011;51092;50.874;7.024;2023-03-20T02:07:33;40.88;;;29.00;;
30888;SDS011;51092;50.874;7.024;2023-03-20T02:08:39;38.05;;;26.85;;
30888;SDS011;51092;50.874;7.024;2023-03-20T02:09:45;34.92;;;26.15;;
30888;SDS011;51092;50.874;7.024;2023-03-20T02:10:48;37.10;;;27.27;;
30888;SDS011;51092;50.874;7.024;2023-03-20T02:11:49;40.10;;;28.98;;
30888;SDS011;51092;50.874;7.024;2023-03-20T02:12:52;35.55;;;27.30;;
30888;SDS011;51092;50.874;7.024;2023-03-20T02:13:54;37.20;;;27.13;;
30888;SDS011;51092;50.874;7.024;2023-03-20T02:15:00;34.80;;;27.92;;
30888;SDS011;51092;50.874;7.024;2023-03-20T02:16:03;34.95;;;28.15;;
30888;SDS011;51092;50.874;7.024;2023-03-20T02:17:08;35.50;;;26.20;;
30888;SDS011;51092;50.874;7.024;2023-03-20T02:18:10;35.72;;;25.77;;
30888;SDS011;51092;50.874;7.024;2023-03-20T02:19:14;36.17;;;26.40;;
30888;SDS011;51092;50.874;7.024;2023-03-20T02:20:26;37.83;;;27.83;;
30888;SDS011;51092;50.874;7.024;2023-03-20T02:21:52;39.33;;;27.27;;
30888;SDS011;51092;50.874;7.024;2023-03-20T02:25:04;32.83;;;24.70;;
30888;SDS011;51092;50.874;7.024;2023-03-20T02:26:34;37.80;;;27.05;;
30888;SDS011;51092;50.874;7.024;2023-03-20T02:27:51;38.33;;;26.50;;
30888;SDS011;51092;50.874;7.024;2023-03-20T02:30:57;35.25;;;26.35;;
30888;SDS011;51092;50.874;7.024;2023-03-20T02:32:33;38.33;;;27.15;;
30888;SDS011;51092;50.874;7.024;2023-03-20T02:34:14;39.57;;;27.80;;
30888;SDS011;51092;50.874;7.024;2023-03-20T02:38:50;37.45;;;27.33;;
30888;SDS011;51092;50.874;7.024;2023-03-20T02:40:06;41.88;;;28.77;;
30888;SDS011;51092;50.874;7.024;2023-03-20T02:41:18;40.55;;;27.08;;
30888;SDS011;51092;50.874;7.024;2023-03-20T02:42:28;36.78;;;26.13;;
30888;SDS011;51092;50.874;7.024;2023-03-20T02:43:36;36.22;;;27.50;;
30888;SDS011;51092;50.874;7.024;2023-03-20T02:44:46;38.80;;;28.60;;
30888;SDS011;51092;50.874;7.024;2023-03-20T02:46:00;40.78;;;26.75;;
30888;SDS011;51092;50.874;7.024;2023-03-20T02:47:06;37.72;;;25.17;;
30888;SDS011;51092;50.874;7.024;2023-03-20T02:48:15;36.55;;;28.52;;
30888;SDS011;51092;50.874;7.024;2023-03-20T02:49:28;36.80;;;27.58;;
30888;SDS011;51092;50.874;7.024;2023-03-20T02:50:45;38.90;;;26.95;;
30888;SDS011;51092;50.874;7.024;2023-03-20T02:51:53;41.03;;;27.13;;
30888;SDS011;51092;50.874;7.024;2023-03-20T02:53:03;36.42;;;27.27;;
30888;SDS011;51092;50.874;7.024;2023-03-20T02:54:16;38.25;;;26.92;;
30888;SDS011;51092;50.874;7.024;2023-03-20T02:55:27;38.85;;;28.35;;
30888;SDS011;51092;50.874;7.024;2023-03-20T02:56:34;35.15;;;23.80;;
30888;SDS011;51092;50.874;7.024;2023-03-20T02:57:50;39.65;;;26.13;;
30888;SDS011;51092;50.874;7.024;2023-03-20T02:58:57;42.92;;;29.63;;
30888;SDS011;51092;50.874;7.024;2023-03-20T03:00:08;37.10;;;28.25;;
30888;SDS011;51092;50.874;7.024;2023-03-20T03:01:14;34.63;;;25.77;;
30888;SDS011;51092;50.874;7.024;2023-03-20T03:02:20;37.38;;;25.75;;
30888;SDS011;51092;50.874;7.024;2023-03-20T03:03:30;35.63;;;26.17;;
30888;SDS011;51092;50.874;7.024;2023-03-20T03:04:39;37.67;;;25.88;;
30888;SDS011;51092;50.874;7.024;2023-03-20T03:05:46;41.10;;;29.35;;
30888;SDS011;51092;50.874;7.024;2023-03-20T03:06:53;35.65;;;27.58;;
30888;SDS011;51092;50.874;7.024;2023-03-20T03:07:58;36.40;;;25.58;;
30888;SDS011;51092;50.874;7.024;2023-03-20T03:09:05;36.97;;;26.48;;
30888;SDS011;51092;50.874;7.024;2023-03-20T03:10:13;36.90;;;26.65;;
30888;SDS011;51092;50.874;7.024;2023-03-20T03:11:23;37.78;;;25.42;;
30888;SDS011;51092;50.874;7.024;2023-03-20T03:12:26;38.25;;;26.23;;
30888;SDS011;51092;50.874;7.024;2023-03-20T03:13:32;36.25;;;27.02;;
30888;SDS011;51092;50.874;7.024;2023-03-20T03:14:39;36.42;;;24.95;;
30888;SDS011;51092;50.874;7.024;2023-03-20T03:15:45;45.70;;;27.63;;
30888;SDS011;51092;50.874;7.024;2023-03-20T03:16:50;34.85;;;26.60;;
30888;SDS011;51092;50.874;7.024;2023-03-20T03:17:53;38.92;;;26.73;;
30888;SDS011;51092;50.874;7.024;2023-03-20T03:19:00;38.05;;;27.10;;
30888;SDS011;51092;50.874;7.024;2023-03-20T03:20:11;33.80;;;25.23;;
30888;SDS011;51092;50.874;7.024;2023-03-20T03:21:20;37.53;;;26.08;;
30888;SDS011;51092;50.874;7.024;2023-03-20T03:22:24;35.22;;;24.55;;
30888;SDS011;51092;50.874;7.024;2023-03-20T03:23:28;41.13;;;27.02;;
30888;SDS011;51092;50.874;7.024;2023-03-20T03:24:33;36.10;;;25.77;;
30888;SDS011;51092;50.874;7.024;2023-03-20T03:25:38;36.08;;;25.92;;
30888;SDS011;51092;50.874;7.024;2023-03-20T03:26:42;38.92;;;25.73;;
30888;SDS011;51092;50.874;7.024;2023-03-20T03:27:44;39.30;;;26.98;;
30888;SDS011;51092;50.874;7.024;2023-03-20T03:28:50;42.95;;;28.35;;
30888;SDS011;51092;50.874;7.024;2023-03-20T03:29:54;38.53;;;27.70;;
30888;SDS011;51092;50.874;7.024;2023-03-20T03:31:02;35.50;;;25.92;;
30888;SDS011;51092;50.874;7.024;2023-03-20T03:32:18;38.83;;;27.58;;
30888;SDS011;51092;50.874;7.024;2023-03-20T03:33:24;39.40;;;27.45;;
30888;SDS011;51092;50.874;7.024;2023-03-20T03:34:29;37.53;;;26.38;;
30888;SDS011;51092;50.874;7.024;2023-03-20T03:35:33;37.55;;;26.73;;
30888;SDS011;51092;50.874;7.024;2023-03-20T03:36:36;39.78;;;27.75;;
30888;SDS011;51092;50.874;7.024;2023-03-20T03:37:46;34.67;;;24.95;;
30888;SDS011;51092;50.874;7.024;2023-03-20T03:38:58;38.47;;;26.65;;
30888;SDS011;51092;50.874;7.024;2023-03-20T03:40:06;33.97;;;23.90;;
30888;SDS011;51092;50.874;7.024;2023-03-20T03:41:18;32.25;;;22.40;;
30888;SDS011;51092;50.874;7.024;2023-03-20T03:42:24;34.40;;;23.88;;
30888;SDS011;51092;50.874;7.024;2023-03-20T03:43:34;34.20;;;24.75;;
30888;SDS011;51092;50.874;7.024;2023-03-20T03:44:43;38.70;;;24.73;;
30888;SDS011;51092;50.874;7.024;2023-03-20T03:46:57;29.63;;;20.58;;
30888;SDS011;51092;50.874;7.024;2023-03-20T03:48:06;32.58;;;22.63;;
30888;SDS011;51092;50.874;7.024;2023-03-20T03:49:12;35.22;;;22.27;;
30888;SDS011;51092;50.874;7.024;2023-03-20T03:50:17;30.13;;;22.65;;
30888;SDS011;51092;50.874;7.024;2023-03-20T03:51:22;33.75;;;24.33;;
30888;SDS011;51092;50.874;7.024;2023-03-20T03:52:26;31.05;;;24.17;;
30888;SDS011;51092;50.874;7.024;2023-03-20T03:53:33;33.25;;;23.13;;
30888;SDS011;51092;50.874;7.024;2023-03-20T03:54:41;34.47;;;23.73;;
30888;SDS011;51092;50.874;7.024;2023-03-20T03:55:46;31.42;;;22.48;;
30888;SDS011;51092;50.874;7.024;2023-03-20T03:56:52;32.10;;;21.35;;
30888;SDS011;51092;50.874;7.024;2023-03-20T03:57:56;36.00;;;22.92;;
30888;SDS011;51092;50.874;7.024;2023-03-20T03:59:03;37.75;;;22.67;;
30888;SDS011;51092;50.874;7.024;2023-03-20T04:00:09;29.08;;;20.83;;
30888;SDS011;51092;50.874;7.024;2023-03-20T04:01:13;31.90;;;22.38;;
30888;SDS011;51092;50.874;7.024;2023-03-20T04:02:17;35.47;;;23.25;;
30888;SDS011;51092;50.874;7.024;2023-03-20T04:03:23;28.15;;;18.88;;
30888;SDS011;51092;50.874;7.024;2023-03-20T04:04:29;30.80;;;21.77;;
30888;SDS011;51092;50.874;7.024;2023-03-20T04:05:34;27.52;;;19.33;;
30888;SDS011;51092;50.874;7.024;2023-03-20T04:06:41;29.48;;;19.65;;
30888;SDS011;51092;50.874;7.024;2023-03-20T04:07:43;26.95;;;18.20;;
30888;SDS011;51092;50.874;7.024;2023-03-20T04:08:45;25.10;;;17.95;;
30888;SDS011;51092;50.874;7.024;2023-03-20T04:09:49;29.13;;;18.63;;
30888;SDS011;51092;50.874;7.024;2023-03-20T04:10:51;26.33;;;19.65;;
30888;SDS011;51092;50.874;7.024;2023-03-20T04:11:53;30.23;;;20.70;;
30888;SDS011;51092;50.874;7.024;2023-03-20T04:12:55;32.30;;;19.67;;
30888;SDS011;51092;50.874;7.024;2023-03-20T04:13:58;31.80;;;18.02;;
30888;SDS011;51092;50.874;7.024;2023-03-20T04:15:00;28.42;;;18.45;;
30888;SDS011;51092;50.874;7.024;2023-03-20T04:16:03;28.08;;;18.85;;
30888;SDS011;51092;50.874;7.024;2023-03-20T04:17:05;22.83;;;16.92;;
30888;SDS011;51092;50.874;7.024;2023-03-20T04:18:08;30.08;;;19.08;;
30888;SDS011;51092;50.874;7.024;2023-03-20T04:19:14;27.73;;;17.95;;
30888;SDS011;51092;50.874;7.024;2023-03-20T04:20:16;26.90;;;17.88;;
30888;SDS011;51092;50.874;7.024;2023-03-20T04:21:18;25.08;;;17.45;;
30888;SDS011;51092;50.874;7.024;2023-03-20T04:22:21;26.83;;;18.67;;
30888;SDS011;51092;50.874;7.024;2023-03-20T04:23:22;26.00;;;17.88;;
30888;SDS011;51092;50.874;7.024;2023-03-20T04:24:25;27.10;;;17.52;;
30888;SDS011;51092;50.874;7.024;2023-03-20T04:25:28;25.85;;;18.63;;
30888;SDS011;51092;50.874;7.024;2023-03-20T04:26:30;29.90;;;18.98;;
30888;SDS011;51092;50.874;7.024;2023-03-20T04:27:32;23.08;;;16.20;;
30888;SDS011;51092;50.874;7.024;2023-03-20T04:28:35;30.45;;;19.05;;
30888;SDS011;51092;50.874;7.024;2023-03-20T04:29:37;26.00;;;17.88;;
30888;SDS011;51092;50.874;7.024;2023-03-20T04:30:40;30.20;;;19.52;;
30888;SDS011;51092;50.874;7.024;2023-03-20T04:31:43;30.83;;;16.40;;
30888;SDS011;51092;50.874;7.024;2023-03-20T04:32:45;26.20;;;17.40;;
30888;SDS011;51092;50.874;7.024;2023-03-20T04:33:46;22.45;;;17.17;;
30888;SDS011;51092;50.874;7.024;2023-03-20T04:34:48;25.40;;;17.23;;
30888;SDS011;51092;50.874;7.024;2023-03-20T04:35:50;29.05;;;18.75;;
30888;SDS011;51092;50.874;7.024;2023-03-20T04:36:53;24.17;;;17.48;;
30888;SDS011;51092;50.874;7.024;2023-03-20T04:37:55;22.23;;;16.48;;
30888;SDS011;51092;50.874;7.024;2023-03-20T04:38:57;25.08;;;17.65;;
30888;SDS011;51092;50.874;7.024;2023-03-20T04:40:00;23.90;;;17.23;;
30888;SDS011;51092;50.874;7.024;2023-03-20T04:41:03;24.98;;;16.30;;
30888;SDS011;51092;50.874;7.024;2023-03-20T04:42:06;24.70;;;16.60;;
30888;SDS011;51092;50.874;7.024;2023-03-20T04:43:08;29.55;;;16.73;;
30888;SDS011;51092;50.874;7.024;2023-03-20T04:44:10;26.65;;;18.27;;
30888;SDS011;51092;50.874;7.024;2023-03-20T04:45:11;28.58;;;16.55;;
30888;SDS011;51092;50.874;7.024;2023-03-20T04:46:13;26.63;;;15.95;;
30888;SDS011;51092;50.874;7.024;2023-03-20T04:47:15;25.23;;;17.05;;
30888;SDS011;51092;50.874;7.024;2023-03-20T04:48:17;24.45;;;16.02;;
30888;SDS011;51092;50.874;7.024;2023-03-20T04:49:19;25.85;;;17.90;;
30888;SDS011;51092;50.874;7.024;2023-03-20T04:50:21;27.30;;;17.25;;
30888;SDS011;51092;50.874;7.024;2023-03-20T04:51:23;23.25;;;16.23;;
30888;SDS011;51092;50.874;7.024;2023-03-20T04:52:25;26.23;;;17.88;;
30888;SDS011;51092;50.874;7.024;2023-03-20T04:53:27;25.60;;;16.80;;
30888;SDS011;51092;50.874;7.024;2023-03-20T04:54:29;27.60;;;18.00;;
30888;SDS011;51092;50.874;7.024;2023-03-20T04:55:31;30.45;;;18.48;;
30888;SDS011;51092;50.874;7.024;2023-03-20T04:56:34;28.30;;;17.83;;
30888;SDS011;51092;50.874;7.024;2023-03-20T04:57:37;26.98;;;17.88;;
30888;SDS011;51092;50.874;7.024;2023-03-20T04:58:38;25.83;;;17.63;;
30888;SDS011;51092;50.874;7.024;2023-03-20T04:59:41;26.25;;;17.38;;
30888;SDS011;51092;50.874;7.024;2023-03-20T05:00:43;23.13;;;16.13;;
30888;SDS011;51092;50.874;7.024;2023-03-20T05:01:45;27.55;;;18.15;;
30888;SDS011;51092;50.874;7.024;2023-03-20T05:02:46;24.90;;;18.20;;
30888;SDS011;51092;50.874;7.024;2023-03-20T05:03:48;29.90;;;18.75;;
30888;SDS011;51092;50.874;7.024;2023-03-20T05:04:49;26.00;;;16.70;;
30888;SDS011;51092;50.874;7.024;2023-03-20T05:05:51;31.13;;;19.85;;
30888;SDS011;51092;50.874;7.024;2023-03-20T05:06:53;26.55;;;17.85;;
30888;SDS011;51092;50.874;7.024;2023-03-20T05:07:56;27.65;;;17.95;;
30888;SDS011;51092;50.874;7.024;2023-03-20T05:08:58;30.73;;;19.10;;
30888;SDS011;51092;50.874;7.024;2023-03-20T05:10:01;26.70;;;17.42;;
30888;SDS011;51092;50.874;7.024;2023-03-20T05:11:03;28.50;;;19.65;;
30888;SDS011;51092;50.874;7.024;2023-03-20T05:12:08;27.85;;;19.33;;
30888;SDS011;51092;50.874;7.024;2023-03-20T05:13:12;28.90;;;18.75;;
30888;SDS011;51092;50.874;7.024;2023-03-20T05:14:15;31.52;;;18.67;;
30888;SDS011;51092;50.874;7.024;2023-03-20T05:15:16;26.05;;;18.30;;
30888;SDS011;51092;50.874;7.024;2023-03-20T05:16:19;30.67;;;19.35;;
30888;SDS011;51092;50.874;7.024;2023-03-20T05:17:21;27.27;;;18.02;;
30888;SDS011;51092;50.874;7.024;2023-03-20T05:18:23;30.42;;;19.20;;
30888;SDS011;51092;50.874;7.024;2023-03-20T05:19:25;29.20;;;19.20;;
30888;SDS011;51092;50.874;7.024;2023-03-20T05:20:28;31.98;;;20.90;;
30888;SDS011;51092;50.874;7.024;2023-03-20T05:21:30;31.27;;;19.63;;
30888;SDS011;51092;50.874;7.024;2023-03-20T05:22:32;30.13;;;20.42;;
30888;SDS011;51092;50.874;7.024;2023-03-20T05:23:34;30.08;;;20.27;;
30888;SDS011;51092;50.874;7.024;2023-03-20T05:24:36;31.38;;;19.38;;
30888;SDS011;51092;50.874;7.024;2023-03-20T05:25:38;30.67;;;18.95;;
30888;SDS011;51092;50.874;7.024;2023-03-20T05:26:41;29.92;;;20.30;;
30888;SDS011;51092;50.874;7.024;2023-03-20T05:27:44;29.45;;;21.02;;
30888;SDS011;51092;50.874;7.024;2023-03-20T05:28:47;29.48;;;19.95;;
30888;SDS011;51092;50.874;7.024;2023-03-20T05:29:49;30.55;;;19.75;;
30888;SDS011;51092;50.874;7.024;2023-03-20T05:30:51;29.20;;;18.52;;
30888;SDS011;51092;50.874;7.024;2023-03-20T05:31:53;28.88;;;19.48;;
30888;SDS011;51092;50.874;7.024;2023-03-20T05:32:56;31.83;;;20.27;;
30888;SDS011;51092;50.874;7.024;2023-03-20T05:33:57;31.77;;;20.27;;
30888;SDS011;51092;50.874;7.024;2023-03-20T05:35:00;33.33;;;20.40;;
30888;SDS011;51092;50.874;7.024;2023-03-20T05:36:01;30.80;;;20.55;;
30888;SDS011;51092;50.874;7.024;2023-03-20T05:37:04;29.02;;;19.83;;
30888;SDS011;51092;50.874;7.024;2023-03-20T05:38:06;28.83;;;19.40;;
30888;SDS011;51092;50.874;7.024;2023-03-20T05:39:08;34.08;;;20.65;;
30888;SDS011;51092;50.874;7.024;2023-03-20T05:40:11;32.22;;;20.60;;
30888;SDS011;51092;50.874;7.024;2023-03-20T05:41:14;28.75;;;19.25;;
30888;SDS011;51092;50.874;7.024;2023-03-20T05:42:16;31.52;;;20.15;;
30888;SDS011;51092;50.874;7.024;2023-03-20T05:43:20;33.75;;;21.70;;
30888;SDS011;51092;50.874;7.024;2023-03-20T05:44:21;30.83;;;19.52;;
30888;SDS011;51092;50.874;7.024;2023-03-20T05:45:24;30.75;;;20.00;;
30888;SDS011;51092;50.874;7.024;2023-03-20T05:46:25;32.25;;;19.45;;
30888;SDS011;51092;50.874;7.024;2023-03-20T05:47:28;34.47;;;21.15;;
30888;SDS011;51092;50.874;7.024;2023-03-20T05:48:29;33.30;;;21.33;;
30888;SDS011;51092;50.874;7.024;2023-03-20T05:49:32;34.65;;;22.63;;
30888;SDS011;51092;50.874;7.024;2023-03-20T05:50:34;32.85;;;21.65;;
30888;SDS011;51092;50.874;7.024;2023-03-20T05:51:36;38.80;;;22.23;;
30888;SDS011;51092;50.874;7.024;2023-03-20T05:52:38;32.30;;;22.15;;
30888;SDS011;51092;50.874;7.024;2023-03-20T05:53:40;32.83;;;21.10;;
30888;SDS011;51092;50.874;7.024;2023-03-20T05:54:41;30.98;;;22.00;;
30888;SDS011;51092;50.874;7.024;2023-03-20T05:55:43;32.75;;;20.88;;
30888;SDS011;51092;50.874;7.024;2023-03-20T05:56:44;33.53;;;22.60;;
30888;SDS011;51092;50.874;7.024;2023-03-20T05:57:46;32.97;;;21.02;;
30888;SDS011;51092;50.874;7.024;2023-03-20T05:58:49;32.00;;;21.38;;
30888;SDS011;51092;50.874;7.024;2023-03-20T05:59:52;31.45;;;20.30;;
30888;SDS011;51092;50.874;7.024;2023-03-20T06:00:55;32.53;;;22.00;;
30888;SDS011;51092;50.874;7.024;2023-03-20T06:01:58;37.65;;;22.15;;
30888;SDS011;51092;50.874;7.024;2023-03-20T06:02:59;31.38;;;20.48;;
30888;SDS011;51092;50.874;7.024;2023-03-20T06:04:02;34.70;;;21.60;;
30888;SDS011;51092;50.874;7.024;2023-03-20T06:05:04;38.50;;;20.80;;
30888;SDS011;51092;50.874;7.024;2023-03-20T06:06:07;32.72;;;20.30;;
30888;SDS011;51092;50.874;7.024;2023-03-20T06:07:08;36.20;;;20.65;;
30888;SDS011;51092;50.874;7.024;2023-03-20T06:08:10;30.70;;;20.73;;
30888;SDS011;51092;50.874;7.024;2023-03-20T06:09:11;33.13;;;21.63;;
30888;SDS011;51092;50.874;7.024;2023-03-20T06:10:13;28.95;;;21.40;;
30888;SDS011;51092;50.874;7.024;2023-03-20T06:11:16;25.25;;;18.35;;
30888;SDS011;51092;50.874;7.024;2023-03-20T06:12:17;32.25;;;20.42;;
30888;SDS011;51092;50.874;7.024;2023-03-20T06:13:21;34.83;;;20.17;;
30888;SDS011;51092;50.874;7.024;2023-03-20T06:14:24;30.73;;;21.50;;
30888;SDS011;51092;50.874;7.024;2023-03-20T06:15:27;29.10;;;20.02;;
30888;SDS011;51092;50.874;7.024;2023-03-20T06:16:28;32.72;;;20.23;;
30888;SDS011;51092;50.874;7.024;2023-03-20T06:17:31;32.25;;;19.80;;
30888;SDS011;51092;50.874;7.024;2023-03-20T06:18:33;32.90;;;21.42;;
30888;SDS011;51092;50.874;7.024;2023-03-20T06:19:35;28.85;;;19.70;;
30888;SDS011;51092;50.874;7.024;2023-03-20T06:20:37;30.02;;;19.75;;
30888;SDS011;51092;50.874;7.024;2023-03-20T06:21:40;32.63;;;19.75;;
30888;SDS011;51092;50.874;7.024;2023-03-20T06:22:42;30.80;;;20.08;;
30888;SDS011;51092;50.874;7.024;2023-03-20T06:23:44;34.08;;;20.33;;
30888;SDS011;51092;50.874;7.024;2023-03-20T06:24:46;30.80;;;20.08;;
30888;SDS011;51092;50.874;7.024;2023-03-20T06:25:49;28.63;;;18.48;;
30888;SDS011;51092;50.874;7.024;2023-03-20T06:26:51;28.45;;;19.05;;